Latest Weather Observations for Griffith

IDN60801

Issued at 11:12 pm EST Tuesday 22 September 2020 (issued every 10 minutes, with the page automatically refreshed every 10 minutes)

About weather observations | Map of weather stations | Latest weather observations for NSW | Other Formats
Station Details ID: 075041 Name: GRIFFITH AIRPORT AWS Lat: -34.25 Lon: 146.07 Height: 134.0 m
Data from the previous 72 hours. | See also: Recent months at Griffith
Date/Time
EST
Temp
°C
App
Temp
°C
Dew
Point
°C
Rel
Hum
%
Delta-T
°C
Wind Press
QNH
hPa
Press
MSL
hPa
Rain since
9am
mm
Dir  Spd
km/h
Gust
km/h
Spd
kts
Gust
kts
22/11:00pm 12.4 9.6 6.9 69 2.7 WSW 11 17 6 9 1015.5 1015.5 0.0
22/10:56pm 12.4 9.3 7.1 70 2.6 WSW 13 17 7 9 1015.4 1015.4 0.0
22/10:37pm 11.6 9.9 7.5 76 2.0 NNW 6 7 3 4 1015.1 1015.1 0.0
22/10:30pm 11.9 9.8 6.8 71 2.4 NNW 7 9 4 5 1015.0 1015.0 0.0
22/10:00pm 12.2 10.3 6.9 70 2.6 NW 6 7 3 4 1015.0 1015.0 0.0
22/09:30pm 12.4 10.3 6.5 67 2.8 WNW 7 9 4 5 1015.0 1015.0 0.0
22/09:00pm 11.9 10.1 7.2 73 2.3 WSW 6 7 3 4 1014.9 1014.9 0.0
22/08:30pm 12.4 9.8 6.2 66 3.0 NW 9 11 5 6 1014.5 1014.5 0.0
22/08:00pm 12.6 10.0 6.0 64 3.1 NW 9 11 5 6 1014.3 1014.3 0.0
22/07:30pm 12.5 9.4 5.4 62 3.3 NNW 11 13 6 7 1013.9 1013.9 0.0
22/07:00pm 14.3 10.6 4.3 51 4.6 WNW 13 17 7 9 1013.4 1013.4 0.0
22/06:30pm 16.0 11.4 3.8 44 5.7 WNW 17 22 9 12 1013.1 1013.1 0.0
22/06:00pm 16.9 11.6 3.2 40 6.3 W 20 26 11 14 1012.8 1012.8 0.0
22/05:30pm 18.5 12.3 2.4 34 7.4 W 24 35 13 19 1012.4 1012.4 0.0
22/05:00pm 19.4 12.4 4.0 36 7.4 WNW 30 39 16 21 1012.0 1012.0 0.0
22/04:30pm 19.1 12.6 4.5 38 7.1 WNW 28 43 15 23 1011.9 1011.9 0.0
22/04:00pm 20.3 13.0 4.4 35 7.7 WNW 32 43 17 23 1011.7 1011.7 0.0
22/03:30pm 20.0 12.4 4.1 35 7.7 NW 33 44 18 24 1011.7 1011.7 0.0
22/03:05pm 20.0 12.5 3.7 34 7.8 WNW 32 50 17 27 1011.7 1011.7 0.0
22/03:00pm 20.4 12.9 3.6 33 8.1 WNW 32 48 17 26 1011.7 1011.7 0.0
22/02:30pm 20.3 12.9 5.1 37 7.5 NW 33 50 18 27 1011.8 1011.8 0.0
22/02:12pm 20.3 11.9 3.5 33 8.0 WNW 37 56 20 30 1011.9 1011.9 0.0
22/02:00pm 19.9 11.3 4.4 36 7.5 WNW 39 54 21 29 1011.9 1011.9 0.0
22/01:39pm 20.3 12.5 6.6 41 7.0 WNW 37 59 20 32 1011.9 1011.9 0.0
22/01:30pm 19.9 11.9 5.5 39 7.1 WNW 37 50 20 27 1011.9 1011.9 0.0
22/01:00pm 19.1 12.3 7.5 47 5.9 WNW 33 48 18 26 1012.0 1012.0 0.0
22/12:30pm 19.2 12.9 7.6 47 6.0 WNW 30 44 16 24 1012.1 1012.1 0.0
22/12:00pm 19.3 12.7 7.7 47 6.0 WNW 32 44 17 24 1012.3 1012.3 0.0
22/11:30am 19.4 14.3 9.3 52 5.4 WNW 26 41 14 22 1012.6 1012.6 0.0
22/11:00am 18.1 12.5 8.7 54 4.9 NW 28 35 15 19 1012.8 1012.8 0.0
22/10:30am 17.6 12.4 9.0 57 4.5 WNW 26 35 14 19 1012.9 1012.9 0.0
22/10:00am 16.7 11.5 8.7 59 4.1 WNW 26 39 14 21 1013.1 1013.1 0.0
22/09:30am 16.2 11.7 8.4 60 4.0 W 22 30 12 16 1013.1 1013.1 0.0
22/09:00am 15.7 11.7 8.4 62 3.7 W 19 26 10 14 1013.2 1013.2 2.0
22/08:30am 14.6 11.4 8.3 66 3.2 WNW 15 20 8 11 1012.8 1012.8 2.0
22/08:00am 12.5 10.0 8.0 74 2.2 NW 11 13 6 7 1012.6 1012.6 2.0
22/07:30am 10.7 8.9 7.8 82 1.4 NW 7 11 4 6 1012.2 1012.2 2.0
22/07:00am 9.1 7.4 7.5 90 0.8 WNW 6 7 3 4 1011.8 1011.8 2.0
22/06:30am 7.1 4.7 5.3 88 0.8 NW 7 11 4 6 1011.6 1011.6 2.0
22/06:00am 7.2 4.0 4.9 85 1.0 NW 11 13 6 7 1011.3 1011.3 2.0
22/05:30am 7.3 4.9 5.1 86 1.0 WNW 7 9 4 5 1010.8 1010.8 2.0
22/05:00am 6.8 3.7 5.4 91 0.6 W 11 17 6 9 1010.2 1010.2 2.0
22/04:30am 7.2 5.0 6.0 92 0.5 WSW 7 9 4 5 1009.6 1009.6 2.0
22/04:00am 6.5 4.4 5.6 94 0.4 WSW 6 7 3 4 1009.5 1009.4 2.0
22/03:30am 6.5 4.2 5.5 93 0.4 WSW 7 9 4 5 1009.5 1009.4 2.0
22/03:00am 6.3 5.2 5.3 93 0.4 CALM 0 0 0 0 1009.4 1009.3 2.0
22/02:30am 6.4 4.6 5.2 92 0.5 N 4 6 2 3 1009.7 1009.7 2.0
22/02:00am 7.0 6.1 5.9 93 0.5 CALM 0 0 0 0 1009.9 1009.9 2.0
22/01:30am 7.1 6.2 6.0 93 0.5 CALM 0 0 0 0 1010.0 1010.0 2.0
22/01:00am 7.1 6.2 5.9 92 0.5 CALM 0 0 0 0 1010.1 1010.1 2.0
22/12:30am 7.7 6.9 6.5 92 0.6 CALM 0 0 0 0 1010.2 1010.2 2.0
22/12:00am 8.0 7.1 6.0 87 0.9 CALM 0 0 0 0 1010.2 1010.2 2.0
 
Date/Time
EST
Temp
°C
App
Temp
°C
Dew
Point
°C
Rel
Hum
%
Delta-T
°C
Wind Press
QNH
hPa
Press
MSL
hPa
Rain since
9am
mm
Dir  Spd
km/h
Gust
km/h
Spd
kts
Gust
kts
21/11:30pm 9.0 7.1 6.8 86 1.0 NNE 6 7 3 4 1010.2 1010.2 2.0
21/11:00pm 10.0 7.9 6.5 79 1.6 N 7 9 4 5 1010.1 1010.1 2.0
21/10:30pm 11.3 9.5 7.0 75 2.1 WSW 6 9 3 5 1010.0 1010.0 2.0
21/10:00pm 12.1 10.4 8.2 77 1.9 WSW 7 9 4 5 1010.0 1010.0 2.0
21/09:30pm 13.1 10.5 9.5 79 1.8 SW 13 15 7 8 1009.7 1009.7 2.0
21/09:00pm 12.0 10.5 10.7 92 0.7 WSW 9 17 5 9 1009.4 1009.3 2.0
21/08:30pm 11.7 11.8 10.1 90 0.8 CALM 0 0 0 0 1008.7 1008.6 2.0
21/08:00pm 13.0 13.2 10.7 86 1.2 CALM 0 0 0 0 1008.3 1008.2 2.0
21/07:30pm 13.8 14.3 11.5 86 1.2 CALM 0 0 0 0 1007.2 1007.2 2.0
21/07:00pm 14.5 15.0 11.7 83 1.5 CALM 0 0 0 0 1006.5 1006.5 2.0
21/06:30pm 15.8 15.8 11.2 74 2.5 SSW 2 6 1 3 1005.9 1005.9 2.0
21/06:00pm 18.4 17.3 11.9 66 3.6 WSW 9 13 5 7 1005.8 1005.8 2.0
21/05:30pm 20.4 18.4 11.6 57 4.9 WSW 13 17 7 9 1005.9 1005.9 2.0
21/05:00pm 21.1 18.1 12.0 56 5.1 SW 19 24 10 13 1005.7 1005.7 2.0
21/04:30pm 21.2 18.3 12.9 59 4.8 WSW 20 28 11 15 1005.5 1005.5 2.0
21/04:00pm 20.4 16.3 13.8 66 3.8 SW 28 35 15 19 1005.7 1005.7 2.0
21/03:30pm 21.2 17.9 15.1 68 3.6 WSW 26 33 14 18 1005.8 1005.8 2.0
21/03:00pm 20.9 18.9 17.5 81 2.1 WSW 24 33 13 18 1005.6 1005.6 2.0
21/02:30pm 22.0 18.3 16.1 69 3.6 WSW 30 43 16 23 1006.2 1006.2 0.8
21/02:00pm 23.9 21.5 16.4 63 4.6 W 24 33 13 18 1006.1 1006.1 0.8
21/01:30pm 22.1 20.5 16.6 71 3.4 WNW 20 30 11 16 1006.4 1006.4 0.8
21/01:00pm 24.3 20.3 14.1 53 6.1 NW 28 46 15 25 1006.2 1006.2 0.0
21/12:51pm 24.9 20.7 13.5 49 6.7 NNW 28 46 15 25 1006.1 1006.1 0.0
21/12:30pm 24.0 19.8 13.5 52 6.2 NNW 28 35 15 19 1006.6 1006.6 0.0
21/12:00pm 25.9 22.0 13.4 46 7.4 N 26 32 14 17 1006.3 1006.3 0.0
21/11:30am 25.1 21.0 13.9 49 6.6 NNW 28 35 15 19 1007.0 1007.0 0.0
21/11:00am 24.0 20.3 13.8 53 6.0 NNW 26 35 14 19 1007.5 1007.5 0.0
21/10:30am 23.2 20.1 14.5 58 5.2 N 24 33 13 18 1007.8 1007.8 0.0
21/10:00am 22.6 19.5 13.4 56 5.4 N 22 32 12 17 1008.4 1008.3 0.0
21/09:30am 21.3 18.6 13.5 61 4.5 NW 20 30 11 16 1008.7 1008.6 0.0
21/09:00am 20.7 18.5 13.4 63 4.2 NNW 17 24 9 13 1008.7 1008.6 0.2
21/08:30am 19.3 17.6 13.5 69 3.3 NW 15 20 8 11 1009.2 1009.1 0.2
21/08:00am 17.8 13.7 12.7 72 2.9 W 26 44 14 24 1009.2 1009.1 0.2
21/07:36am 18.3 15.2 12.1 67 3.4 NW 20 46 11 25 1008.5 1008.4 0.2
21/07:30am 19.8 18.4 13.3 66 3.7 N 13 19 7 10 1007.4 1007.4 0.2
21/07:00am 18.8 17.4 12.1 65 3.7 N 11 19 6 10 1006.9 1006.9 0.2
21/06:30am 18.1 16.0 12.5 70 3.1 NNE 15 17 8 9 1006.9 1006.9 0.2
21/06:00am 17.5 15.3 12.2 71 2.9 NNE 15 20 8 11 1007.0 1007.0 0.2
21/05:30am 16.8 15.2 11.5 71 2.9 N 11 20 6 11 1007.3 1007.3 0.2
21/05:00am 17.1 15.1 12.6 75 2.5 NNE 15 20 8 11 1007.1 1007.1 0.2
21/04:30am 15.6 14.1 12.0 79 2.0 NNE 11 13 6 7 1007.2 1007.2 0.2
21/04:00am 15.6 14.5 12.0 79 2.0 NNE 9 11 5 6 1007.3 1007.3 0.2
21/03:30am 15.4 14.8 12.2 81 1.8 N 7 11 4 6 1007.6 1007.6 0.2
21/03:00am 14.0 14.6 11.9 87 1.1 CALM 0 0 0 0 1007.8 1007.8 0.2
21/02:30am 15.4 14.5 12.5 83 1.6 N 9 11 5 6 1008.3 1008.2 0.2
21/02:00am 13.6 13.6 12.5 93 0.6 NNE 4 9 2 5 1008.6 1008.5 0.2
21/01:30am 12.5 12.9 11.4 93 0.6 CALM 0 0 0 0 1009.0 1008.9 0.2
21/01:00am 12.5 12.9 11.2 92 0.7 CALM 0 0 0 0 1009.2 1009.1 0.2
21/12:30am 13.0 13.4 11.1 88 1.0 CALM 0 0 0 0 1009.5 1009.4 0.2
21/12:00am 15.0 14.8 11.8 81 1.7 NW 4 6 2 3 1009.6 1009.6 0.2
 
Date/Time
EST
Temp
°C
App
Temp
°C
Dew
Point
°C
Rel
Hum
%
Delta-T
°C
Wind Press
QNH
hPa
Press
MSL
hPa
Rain since
9am
mm
Dir  Spd
km/h
Gust
km/h
Spd
kts
Gust
kts
20/11:30pm 16.0 14.9 12.0 77 2.2 NNW 9 13 5 7 1009.5 1009.4 0.2
20/11:00pm 16.3 14.9 12.3 77 2.2 NNE 11 13 6 7 1009.4 1009.3 0.2
20/10:30pm 16.7 15.1 12.7 77 2.2 NNE 13 15 7 8 1009.6 1009.6 0.2
20/10:00pm 16.1 15.6 12.5 79 2.0 NNE 7 11 4 6 1009.9 1009.9 0.2
20/09:30pm 16.2 14.9 12.6 79 2.0 NNE 11 13 6 7 1009.9 1009.9 0.2
20/09:00pm 16.5 15.7 12.8 79 2.1 NNE 9 11 5 6 1010.2 1010.2 0.2
20/08:30pm 16.5 15.0 13.2 81 1.9 NNE 13 15 7 8 1010.1 1010.1 0.2
20/08:00pm 16.8 15.7 13.1 79 2.1 NNE 11 13 6 7 1010.0 1010.0 0.2
20/07:30pm 16.9 16.1 13.0 78 2.2 NNE 9 11 5 6 1009.7 1009.7 0.2
20/07:00pm 17.1 16.4 13.2 78 2.2 NNE 9 11 5 6 1009.4 1009.3 0.2
20/06:30pm 18.7 18.1 13.6 72 2.9 N 9 11 5 6 1009.1 1009.0 0.2
20/06:00pm 20.1 19.4 13.1 64 4.0 N 9 13 5 7 1008.8 1008.7 0.2
20/05:30pm 22.1 20.2 12.9 56 5.3 NNW 15 20 8 11 1008.7 1008.6 0.2
20/05:00pm 22.6 21.3 13.7 57 5.2 NNW 13 19 7 10 1008.6 1008.5 0.2
20/04:30pm 22.6 20.7 14.2 59 4.9 NNW 17 22 9 12 1008.7 1008.6 0.2
20/04:00pm 22.4 19.7 12.9 55 5.5 NNW 19 28 10 15 1008.7 1008.6 0.2
20/03:30pm 22.7 19.9 13.2 55 5.5 NW 20 28 11 15 1008.8 1008.7 0.2
20/03:00pm 22.4 18.7 12.6 54 5.6 NNW 24 33 13 18 1009.0 1008.9 0.2
20/02:30pm 22.9 20.1 13.1 54 5.7 NW 20 33 11 18 1009.2 1009.1 0.2
20/02:00pm 21.9 19.5 13.8 60 4.7 NW 19 26 10 14 1009.5 1009.4 0.2
20/01:30pm 22.8 21.5 15.9 65 4.2 NW 17 24 9 13 1009.9 1009.9 0.2
20/01:00pm 20.9 18.9 13.8 64 4.1 NW 17 20 9 11 1010.3 1010.3 0.2
20/12:30pm 22.1 19.9 14.5 62 4.5 NNW 19 28 10 15 1010.6 1010.6 0.2
20/12:00pm 21.1 18.6 13.5 62 4.4 NW 19 28 10 15 1011.0 1011.0 0.2
20/11:30am 20.0 17.6 12.7 63 4.1 NW 17 22 9 12 1011.2 1011.2 0.2
20/11:00am 20.8 18.9 13.0 61 4.5 NW 15 24 8 13 1011.3 1011.3 0.2
20/10:30am 20.7 19.5 15.0 70 3.4 NW 15 22 8 12 1011.4 1011.4 0.2
20/10:00am 19.4 17.1 14.2 72 3.0 NW 19 28 10 15 1011.6 1011.6 0.0
20/09:30am 18.6 16.6 13.9 74 2.7 NW 17 24 9 13 1011.6 1011.6 0.0
20/09:00am 17.7 15.3 13.8 78 2.2 NW 19 28 10 15 1011.4 1011.4 21.6
20/08:30am 16.7 14.7 14.9 89 1.0 NNW 19 24 10 13 1011.3 1011.3 21.6
20/08:00am 17.0 15.7 15.7 92 0.8 NNW 17 24 9 13 1011.4 1011.4 21.6
20/07:30am 16.1 14.4 14.8 92 0.8 N 17 26 9 14 1011.3 1011.3 21.6
20/07:00am 15.7 14.4 14.7 94 0.6 N 15 19 8 10 1010.9 1010.9 21.6
20/06:30am 15.6 14.7 14.8 95 0.5 N 13 17 7 9 1010.5 1010.5 21.6
20/06:00am 15.4 14.8 14.6 95 0.5 NNW 11 17 6 9 1010.2 1010.2 21.6
20/05:30am 15.5 13.7 14.5 94 0.6 N 17 20 9 11 1009.9 1009.9 21.6
20/05:00am 15.4 14.0 14.6 95 0.5 N 15 20 8 11 1009.9 1009.9 21.6
20/04:30am 15.3 14.3 14.7 96 0.3 N 13 20 7 11 1009.8 1009.8 21.6
20/04:00am 15.2 14.2 14.7 97 0.3 NNE 13 17 7 9 1009.6 1009.6 21.6
20/03:30am 15.2 13.9 14.7 97 0.3 NNE 15 19 8 10 1009.4 1009.3 21.6
20/03:00am 15.2 13.9 14.7 97 0.3 NNE 15 24 8 13 1009.7 1009.7 21.6
20/02:30am 15.0 14.4 14.7 98 0.2 NE 11 17 6 9 1009.9 1009.9 21.6
20/02:28am 15.0 14.4 14.7 98 0.2 NE 11 17 6 9 1009.9 1009.9 21.6
20/02:00am 15.0 14.0 14.7 98 0.2 NNE 13 17 7 9 1010.5 1010.5 21.6
20/01:56am 15.0 14.0 14.7 98 0.2 NNE 13 17 7 9 1010.7 1010.7 21.6
20/01:54am 15.0 14.4 14.7 98 0.2 NNE 11 17 6 9 1010.8 1010.8 21.6
20/01:39am 15.0 14.0 14.7 98 0.2 NNE 13 19 7 10 1011.1 1011.1 21.4
20/01:35am 15.1 14.2 14.8 98 0.2 NNE 13 19 7 10 1011.2 1011.2 21.2
20/01:30am 15.1 14.1 14.6 97 0.3 NNE 13 19 7 10 1011.3 1011.3 21.0
20/01:00am 15.2 12.5 14.7 97 0.3 N 22 28 12 15 1012.0 1012.0 19.0
20/12:57am 15.2 12.1 14.6 96 0.3 N 24 37 13 20 1012.0 1012.0 18.8
20/12:30am 15.4 11.6 14.6 95 0.5 NNE 28 39 15 21 1011.5 1011.5 15.4
20/12:24am 15.4 11.3 14.8 96 0.3 NNE 30 46 16 25 1011.5 1011.5 15.0
20/12:21am 15.3 11.5 14.7 96 0.3 NNE 28 46 15 25 1011.5 1011.5 14.8
20/12:00am 15.4 11.2 14.6 95 0.5 NE 30 43 16 23 1011.5 1011.5 12.2
 
Date/Time
EST
Temp
°C
App
Temp
°C
Dew
Point
°C
Rel
Hum
%
Delta-T
°C
Wind Press
QNH
hPa
Press
MSL
hPa
Rain since
9am
mm
Dir  Spd
km/h
Gust
km/h
Spd
kts
Gust
kts
19/11:41pm 15.2 10.3 14.2 94 0.6 NNE 33 50 18 27 1011.5 1011.5 9.6
19/11:36pm 15.3 10.6 14.3 94 0.6 NNE 32 50 17 27 1011.6 1011.6 8.4
19/11:30pm 15.4 10.7 14.3 93 0.6 NNE 32 48 17 26 1011.7 1011.7 8.0
19/11:20pm 15.4 10.7 14.4 94 0.6 NNE 32 44 17 24 1011.5 1011.5 7.8

Other formats

Comma delimited format used in spreadsheet applications
http://www.bom.gov.au/fwo/IDN60801/IDN60801.95704.axf

JavaScript Object Notation format (JSON) in row-major order
http://www.bom.gov.au/fwo/IDN60801/IDN60801.95704.json

Data quality

Most of these data are generated automatically and are frequently updated. Quality checks on data are not normally performed. It is possible for incorrect values to appear. Refer to information at About Latest Weather Observations and please check the disclaimer before using these data.